Strona główna
METAR-TAF:

METAR-TAF

Lotnisko :

Port lotniczy Larnaka

Larnaka, Cypr

Szerokość geograficzna: 34-53N, Długość geograficzna: 033-38E, wysokość: 2 m

Aktualna obserwacja pogody

Raport powstał 12 minut temu, godzina 01:30 UTC
Wiatr 6 kt od północno-północny zachód
Temperatura 11°C
Wilgotność 66%
Ciśnienie 1019 hPa
Widzialność 10 km lub więcej
Brak chmur poniżej 1500 m i brak chmur cumulonimbus

METAR: LCLK 060130Z 33006KT CAVOK 11/05 Q1019 NOSIG

czas: 03:42 (01:42 UTC)

Prognoza

Raport powstał 2 godziny i 12 minut temu, godzina 23:30 UTC
Prognoza ważna od 06 godzina 00 UTC do 06 godzina 24 UTC
Wiatr 9 kt od północno-północny zachód
Widzialność 10 km lub więcej
Mało chmury na wysokości 3000 ft
Stopniowe zmiany
od 06 godzina 07 UTC do 06 godzina 09 UTC
Wiatr 12 kt od północno-północny wschód

TAF: LCLK 052330Z 0600/0624 33009KT 9999 FEW030 BECMG 0607/0609 03012KT

Obserwacja i prognoza pogody dla ponad 4000 lotnisk (raport METAR i TAF).

Dostępne stacje oznaczono żółtymi i czerwonymi punktami na mapie.

Najedź kursorem aby zobaczyć nazwę stacji.

Kliknij aby zobaczyć obserwacje i prognozy pogody.

Aby zmienić mapę: kliknij na zielony przycisk z czarnym krzyżykiem, aby powiększyć; na zielony przycisk z myślnikiem, aby pomniejszyć; na zielone strzałki, aby przejść do map sąsiednich.


METAR-TAF: